createdAt,value
2022-12-11T00:01:20.327Z,4
2022-12-11T00:03:51.408Z,4
2022-12-11T00:06:23.402Z,4
2022-12-11T00:08:54.403Z,4
2022-12-11T00:11:24.584Z,4
2022-12-11T00:13:55.265Z,4
2022-12-11T00:16:27.192Z,4
2022-12-11T00:18:57.545Z,0
2022-12-11T00:21:28.864Z,0
2022-12-11T00:23:59.668Z,5
2022-12-11T00:26:30.524Z,1
2022-12-11T00:29:01.161Z,4
2022-12-11T00:31:30.243Z,4
2022-12-11T00:34:01.193Z,4
2022-12-11T00:36:32.106Z,4
2022-12-11T00:39:02.676Z,4
2022-12-11T00:41:33.419Z,4
2022-12-11T00:44:04.144Z,4
2022-12-11T00:46:33.892Z,4
2022-12-11T00:49:04.411Z,7
2022-12-11T00:51:36.939Z,4
2022-12-11T00:54:07.549Z,4
2022-12-11T00:56:38.906Z,2
2022-12-11T00:59:10.145Z,4
2022-12-11T01:01:41.113Z,4
2022-12-11T01:04:11.875Z,4
2022-12-11T01:06:43.485Z,4
2022-12-11T01:09:14.833Z,8
2022-12-11T01:11:45.339Z,5
2022-12-11T01:14:16.211Z,4
2022-12-11T01:16:47.188Z,4
2022-12-11T01:19:17.866Z,9
2022-12-11T01:21:49.989Z,6
2022-12-11T01:24:20.682Z,8
2022-12-11T01:26:51.700Z,4
2022-12-11T01:29:23.191Z,4
2022-12-11T01:31:53.728Z,4
2022-12-11T01:34:24.406Z,7
2022-12-11T01:36:55.819Z,4
2022-12-11T01:39:33.015Z,4
2022-12-11T01:41:58.515Z,4
2022-12-11T01:44:29.273Z,4
2022-12-11T01:47:00.081Z,4
2022-12-11T01:49:31.811Z,4
2022-12-11T01:52:02.758Z,2
2022-12-11T01:54:34.082Z,1
2022-12-11T01:57:05.271Z,0
2022-12-11T01:59:36.964Z,4
2022-12-11T02:02:07.853Z,4
2022-12-11T02:04:39.384Z,0
2022-12-11T02:07:11.831Z,4
2022-12-11T02:09:41.804Z,4
2022-12-11T02:12:12.691Z,4
2022-12-11T02:14:44.025Z,1
2022-12-11T02:17:14.655Z,1
2022-12-11T02:19:45.740Z,4
2022-12-11T02:22:16.839Z,0
2022-12-11T02:24:47.717Z,0
2022-12-11T02:27:18.609Z,0
2022-12-11T02:29:50.837Z,0
2022-12-11T02:32:21.564Z,4
2022-12-11T02:34:52.759Z,4
2022-12-11T02:37:23.854Z,1
2022-12-11T02:39:55.049Z,0
2022-12-11T02:42:25.600Z,3
2022-12-11T02:44:56.864Z,0
2022-12-11T02:47:27.943Z,4
2022-12-11T02:49:59.081Z,0
2022-12-11T02:52:29.507Z,0
2022-12-11T02:55:00.363Z,3
2022-12-11T02:57:35.413Z,4
2022-12-11T03:00:05.904Z,3
2022-12-11T03:02:36.892Z,0
2022-12-11T03:05:07.918Z,0
2022-12-11T03:07:38.894Z,0
2022-12-11T03:10:09.607Z,4
2022-12-11T03:12:40.852Z,1
2022-12-11T03:15:12.137Z,2
2022-12-11T03:17:42.730Z,0
2022-12-11T03:20:13.692Z,0
2022-12-11T03:22:45.640Z,4
2022-12-11T03:25:16.405Z,0
2022-12-11T03:27:47.701Z,0
2022-12-11T03:30:19.097Z,4
2022-12-11T03:32:49.987Z,0
2022-12-11T03:35:21.563Z,1
2022-12-11T03:37:52.342Z,0
2022-12-11T03:40:24.352Z,4
2022-12-11T03:42:55.051Z,0
2022-12-11T03:45:26.503Z,3
2022-12-11T03:47:57.757Z,0
2022-12-11T03:50:28.847Z,4
2022-12-11T03:52:59.621Z,0
2022-12-11T03:55:30.495Z,0
2022-12-11T03:58:01.238Z,0
2022-12-11T04:00:32.783Z,0
2022-12-11T04:03:06.921Z,1
2022-12-11T04:05:34.362Z,2
2022-12-11T04:08:05.218Z,0
2022-12-11T04:10:36.409Z,4
2022-12-11T04:13:07.572Z,4
2022-12-11T04:15:38.418Z,4
2022-12-11T04:18:09.390Z,4
2022-12-11T04:20:40.557Z,4
2022-12-11T04:23:12.556Z,8
2022-12-11T04:25:44.160Z,8
2022-12-11T04:28:15.799Z,4
2022-12-11T04:30:47.235Z,8
2022-12-11T04:33:18.787Z,4
2022-12-11T04:35:49.759Z,4
2022-12-11T04:38:21.296Z,4
2022-12-11T04:40:52.337Z,4
2022-12-11T04:43:23.517Z,8
2022-12-11T04:45:54.186Z,5
2022-12-11T04:48:25.918Z,4
2022-12-11T04:50:56.957Z,5
2022-12-11T04:53:27.699Z,0
2022-12-11T04:55:58.751Z,7
2022-12-11T04:58:30.099Z,4
2022-12-11T05:01:01.008Z,4
2022-12-11T05:03:32.330Z,4
2022-12-11T05:06:02.740Z,4
2022-12-11T05:08:33.775Z,8
2022-12-11T05:11:04.974Z,4
2022-12-11T05:13:36.433Z,3
2022-12-11T05:16:07.332Z,8
2022-12-11T05:18:38.134Z,0
2022-12-11T05:21:08.996Z,7
2022-12-11T05:23:40.291Z,4
2022-12-11T05:26:12.049Z,2
2022-12-11T05:28:42.819Z,5
2022-12-11T05:31:14.047Z,4
2022-12-11T05:33:45.072Z,5
2022-12-11T05:36:15.922Z,8
2022-12-11T05:38:46.817Z,4
2022-12-11T05:41:18.191Z,7
2022-12-11T05:43:49.639Z,4
2022-12-11T05:46:20.391Z,4
2022-12-11T05:48:51.386Z,4
2022-12-11T05:51:22.130Z,4
2022-12-11T05:53:53.340Z,11
2022-12-11T05:56:24.191Z,6
2022-12-11T05:58:55.756Z,4
2022-12-11T06:01:27.161Z,8
2022-12-11T06:03:58.418Z,8
2022-12-11T06:06:29.247Z,8
2022-12-11T06:09:00.120Z,8
2022-12-11T06:11:30.982Z,11
2022-12-11T06:14:01.965Z,8
2022-12-11T06:16:32.574Z,9
2022-12-11T06:19:03.188Z,12
2022-12-11T06:21:34.542Z,12
2022-12-11T06:24:06.549Z,15
2022-12-11T06:26:37.089Z,13
2022-12-11T06:29:12.423Z,12
2022-12-11T06:31:39.376Z,17
2022-12-11T06:34:09.777Z,16
2022-12-11T06:36:40.404Z,12
2022-12-11T06:39:11.490Z,17
2022-12-11T06:41:42.747Z,19
2022-12-11T06:44:14.017Z,16
2022-12-11T06:46:45.251Z,16
2022-12-11T06:49:15.738Z,16
2022-12-11T06:51:46.772Z,20
2022-12-11T06:54:16.974Z,19
2022-12-11T06:56:47.214Z,16
2022-12-11T06:59:17.650Z,17
2022-12-11T07:01:47.871Z,24
2022-12-11T07:04:19.261Z,20
2022-12-11T07:06:48.498Z,15
2022-12-11T07:09:19.666Z,13
2022-12-11T07:11:50.314Z,17
2022-12-11T07:14:21.046Z,27
2022-12-11T07:16:52.012Z,20
2022-12-11T07:19:22.571Z,21
2022-12-11T07:21:53.553Z,20
2022-12-11T07:24:23.151Z,25
2022-12-11T07:26:53.595Z,24
2022-12-11T07:29:24.700Z,37
2022-12-11T07:31:55.827Z,28
2022-12-11T07:34:26.555Z,26
2022-12-11T07:36:57.285Z,21
2022-12-11T07:39:27.889Z,31
2022-12-11T07:41:58.861Z,24
2022-12-11T07:44:29.841Z,32
2022-12-11T07:47:00.067Z,29
2022-12-11T07:49:34.240Z,35
2022-12-11T07:52:04.456Z,27
2022-12-11T07:54:35.252Z,27
2022-12-11T07:57:10.737Z,27
2022-12-11T07:59:37.349Z,28
2022-12-11T08:02:08.287Z,27
2022-12-11T08:04:39.764Z,30
2022-12-11T08:07:10.617Z,34
2022-12-11T08:09:41.279Z,23
2022-12-11T08:12:11.983Z,25
2022-12-11T08:14:42.694Z,31
2022-12-11T08:17:13.961Z,28
2022-12-11T08:19:45.329Z,23
2022-12-11T08:22:16.262Z,28
2022-12-11T08:24:47.178Z,35
2022-12-11T08:27:18.025Z,30
2022-12-11T08:29:49.125Z,25
2022-12-11T08:32:20.319Z,21
2022-12-11T08:34:51.121Z,27
2022-12-11T08:37:22.048Z,28
2022-12-11T08:39:53.244Z,28
2022-12-11T08:42:24.907Z,24
2022-12-11T08:44:55.948Z,25
2022-12-11T08:47:27.262Z,30
2022-12-11T08:49:58.877Z,27
2022-12-11T08:52:30.188Z,27
2022-12-11T08:55:01.565Z,28
2022-12-11T08:57:32.736Z,25
2022-12-11T09:00:04.403Z,28
2022-12-11T09:02:36.102Z,28
2022-12-11T09:05:07.425Z,23
2022-12-11T09:07:38.504Z,30
2022-12-11T09:10:09.769Z,28
2022-12-11T09:12:41.243Z,24
2022-12-11T09:15:12.654Z,31
2022-12-11T09:17:42.198Z,28
2022-12-11T09:20:14.460Z,36
2022-12-11T09:22:45.818Z,31
2022-12-11T09:25:17.310Z,36
2022-12-11T09:27:48.991Z,35
2022-12-11T09:30:20.467Z,35
2022-12-11T09:32:51.317Z,32
2022-12-11T09:35:22.427Z,40
2022-12-11T09:37:53.722Z,46
2022-12-11T09:40:25.220Z,32
2022-12-11T09:42:56.267Z,39
2022-12-11T09:45:27.829Z,56
2022-12-11T09:48:03.808Z,44
2022-12-11T09:50:34.830Z,44
2022-12-11T09:53:04.572Z,52
2022-12-11T09:55:35.714Z,29
2022-12-11T09:58:07.262Z,34
2022-12-11T10:00:43.082Z,32
2022-12-11T10:03:07.833Z,32
2022-12-11T10:05:39.325Z,40
2022-12-11T10:08:10.629Z,33
2022-12-11T10:10:42.150Z,28
2022-12-11T10:13:15.014Z,35
2022-12-11T10:15:46.020Z,34
2022-12-11T10:18:17.092Z,25
2022-12-11T10:20:48.624Z,33
2022-12-11T10:23:19.711Z,32
2022-12-11T10:25:50.510Z,29
2022-12-11T10:28:21.429Z,37
2022-12-11T10:30:52.966Z,35
2022-12-11T10:33:24.158Z,32
2022-12-11T10:35:55.080Z,34
2022-12-11T10:38:26.522Z,32
2022-12-11T10:40:57.821Z,29
2022-12-11T10:43:29.389Z,36
2022-12-11T10:46:00.649Z,40
2022-12-11T10:48:31.830Z,32
2022-12-11T10:51:02.976Z,28
2022-12-11T10:53:34.224Z,29
2022-12-11T10:56:05.091Z,28
2022-12-11T10:58:36.095Z,28
2022-12-11T11:01:07.504Z,37
2022-12-11T11:03:39.066Z,35
2022-12-11T11:06:10.406Z,37
2022-12-11T11:08:42.466Z,30
2022-12-11T11:11:14.617Z,31
2022-12-11T11:13:46.941Z,29
2022-12-11T11:16:18.097Z,31
2022-12-11T11:18:49.327Z,33
2022-12-11T11:21:20.478Z,36
2022-12-11T11:23:53.545Z,33
2022-12-11T11:26:22.775Z,26
2022-12-11T11:28:54.155Z,45
2022-12-11T11:31:26.617Z,37
2022-12-11T11:33:57.666Z,40
2022-12-11T11:36:29.826Z,36
2022-12-11T11:39:01.123Z,42
2022-12-11T11:41:32.845Z,45
2022-12-11T11:44:04.909Z,40
2022-12-11T11:46:35.135Z,36
2022-12-11T11:49:05.799Z,40
2022-12-11T11:51:36.970Z,33
2022-12-11T11:54:07.960Z,40
2022-12-11T11:56:38.776Z,40
2022-12-11T11:59:09.967Z,40
2022-12-11T12:01:46.031Z,37
2022-12-11T12:04:17.356Z,38
2022-12-11T12:06:50.975Z,41
2022-12-11T12:09:20.595Z,42
2022-12-11T12:11:51.571Z,40
2022-12-11T12:14:50.962Z,40
2022-12-11T12:16:55.819Z,40
2022-12-11T12:19:26.612Z,44
2022-12-11T12:21:57.797Z,42
2022-12-11T12:24:31.997Z,39
2022-12-11T12:27:03.420Z,40
2022-12-11T12:29:34.334Z,44
2022-12-11T12:32:04.041Z,39
2022-12-11T12:34:35.439Z,42
2022-12-11T12:37:06.881Z,42
2022-12-11T12:39:38.277Z,37
2022-12-11T12:42:09.438Z,40
2022-12-11T12:44:40.468Z,41
2022-12-11T12:47:11.379Z,42
2022-12-11T12:49:42.373Z,39
2022-12-11T12:52:13.683Z,42
2022-12-11T12:54:45.150Z,41
2022-12-11T12:57:16.261Z,45
2022-12-11T12:59:47.302Z,44
2022-12-11T13:02:17.956Z,36
2022-12-11T13:04:57.084Z,42
2022-12-11T13:07:21.125Z,40
2022-12-11T13:09:52.131Z,46
2022-12-11T13:12:26.019Z,40
2022-12-11T13:14:56.921Z,40
2022-12-11T13:17:29.007Z,40
2022-12-11T13:20:00.412Z,44
2022-12-11T13:22:31.503Z,43
2022-12-11T13:25:03.697Z,44
2022-12-11T13:27:35.244Z,44
2022-12-11T13:30:06.690Z,44
2022-12-11T13:32:37.445Z,42
2022-12-11T13:35:08.639Z,42
2022-12-11T13:37:40.170Z,41
2022-12-11T13:40:11.431Z,39
2022-12-11T13:42:42.368Z,48
2022-12-11T13:45:13.992Z,40
2022-12-11T13:47:45.508Z,38
2022-12-11T13:50:16.873Z,40
2022-12-11T13:52:47.877Z,40
2022-12-11T13:55:19.153Z,44
2022-12-11T13:57:50.062Z,42
2022-12-11T14:00:21.053Z,39
2022-12-11T14:02:52.081Z,40
2022-12-11T14:05:24.371Z,44
2022-12-11T14:07:57.053Z,40
2022-12-11T14:10:28.907Z,40
2022-12-11T14:13:00.090Z,40
2022-12-11T14:15:31.008Z,42
2022-12-11T14:18:02.579Z,44
2022-12-11T14:20:34.184Z,44
2022-12-11T14:23:05.609Z,45
2022-12-11T14:25:36.928Z,44
2022-12-11T14:28:07.001Z,44
2022-12-11T14:30:38.413Z,43
2022-12-11T14:33:10.328Z,47
2022-12-11T14:35:42.278Z,48
2022-12-11T14:38:13.918Z,42
2022-12-11T14:40:45.331Z,40
2022-12-11T14:43:16.752Z,41
2022-12-11T14:45:47.830Z,44
2022-12-11T14:48:18.883Z,44
2022-12-11T14:50:50.274Z,46
2022-12-11T14:53:21.276Z,47
2022-12-11T14:55:52.529Z,44
2022-12-11T14:58:24.010Z,42
2022-12-11T15:00:55.666Z,44
2022-12-11T15:03:26.867Z,44
2022-12-11T15:05:57.806Z,48
2022-12-11T15:08:31.877Z,42
2022-12-11T15:11:03.692Z,41
2022-12-11T15:13:34.470Z,44
2022-12-11T15:16:05.442Z,44
2022-12-11T15:18:36.982Z,42
2022-12-11T15:21:08.704Z,41
2022-12-11T15:23:40.181Z,45
2022-12-11T15:26:12.925Z,44
2022-12-11T15:28:44.264Z,44
2022-12-11T15:31:15.557Z,48
2022-12-11T15:33:46.245Z,38
2022-12-11T15:36:17.304Z,43
2022-12-11T15:38:48.159Z,44
2022-12-11T15:41:19.282Z,44
2022-12-11T15:43:53.963Z,49
2022-12-11T15:46:21.156Z,44
2022-12-11T15:48:51.813Z,40
2022-12-11T15:51:23.027Z,40
2022-12-11T15:53:52.858Z,40
2022-12-11T15:56:23.437Z,40
2022-12-11T15:58:54.500Z,38
2022-12-11T16:01:26.012Z,60
2022-12-11T16:04:01.755Z,52
2022-12-11T16:06:29.944Z,52
2022-12-11T16:09:01.258Z,50
2022-12-11T16:11:33.043Z,48
2022-12-11T16:14:03.985Z,48
2022-12-11T16:16:35.425Z,48
2022-12-11T16:19:06.592Z,45
2022-12-11T16:21:37.753Z,44
2022-12-11T16:24:09.853Z,45
2022-12-11T16:26:42.315Z,40
2022-12-11T16:29:14.003Z,47
2022-12-11T16:31:45.481Z,49
2022-12-11T16:34:17.409Z,41
2022-12-11T16:36:53.870Z,41
2022-12-11T16:39:20.863Z,50
2022-12-11T16:41:51.666Z,50
2022-12-11T16:44:23.717Z,46
2022-12-11T16:46:55.306Z,45
2022-12-11T16:49:26.499Z,47
2022-12-11T16:51:58.756Z,41
2022-12-11T16:54:29.800Z,46
2022-12-11T16:57:00.682Z,46
2022-12-11T16:59:36.774Z,43
2022-12-11T17:02:03.070Z,56
2022-12-11T17:04:34.540Z,53
2022-12-11T17:07:05.525Z,53
2022-12-11T17:09:36.782Z,53
2022-12-11T17:12:07.688Z,48
2022-12-11T17:14:38.654Z,55
2022-12-11T17:17:11.482Z,57
2022-12-11T17:19:43.538Z,52
2022-12-11T17:22:16.016Z,50
2022-12-11T17:24:47.675Z,48
2022-12-11T17:27:18.758Z,49
2022-12-11T17:29:51.962Z,44
2022-12-11T17:32:22.710Z,41
2022-12-11T17:34:55.118Z,48
2022-12-11T17:37:26.442Z,50
2022-12-11T17:39:57.439Z,47
2022-12-11T17:42:29.347Z,45
2022-12-11T17:45:05.328Z,48
2022-12-11T17:47:36.664Z,49
2022-12-11T17:50:07.741Z,47
2022-12-11T17:52:43.948Z,48
2022-12-11T17:55:10.604Z,52
2022-12-11T17:57:41.289Z,45
2022-12-11T18:00:12.692Z,48
2022-12-11T18:02:44.358Z,48
2022-12-11T18:05:15.847Z,54
2022-12-11T18:07:46.677Z,48
2022-12-11T18:10:17.580Z,47
2022-12-11T18:12:50.290Z,51
2022-12-11T18:15:21.399Z,48
2022-12-11T18:17:52.986Z,48
2022-12-11T18:20:22.253Z,50
2022-12-11T18:22:53.077Z,44
2022-12-11T18:25:25.405Z,40
2022-12-11T18:27:59.653Z,44
2022-12-11T18:30:30.871Z,44
2022-12-11T18:33:01.938Z,44
2022-12-11T18:35:33.051Z,48
2022-12-11T18:38:05.209Z,44
2022-12-11T18:40:36.745Z,48
2022-12-11T18:43:08.165Z,47
2022-12-11T18:45:44.140Z,48
2022-12-11T18:48:17.366Z,44
2022-12-11T18:50:53.323Z,48
2022-12-11T18:53:26.005Z,48
2022-12-11T18:56:00.464Z,50
2022-12-11T18:58:29.919Z,44
2022-12-11T19:01:02.263Z,48
2022-12-11T19:03:33.380Z,52
2022-12-11T19:06:05.808Z,44
2022-12-11T19:08:37.699Z,48
2022-12-11T19:11:08.761Z,48
2022-12-11T19:13:45.083Z,44
2022-12-11T19:16:10.902Z,44
2022-12-11T19:18:42.410Z,44
2022-12-11T19:21:13.925Z,44
2022-12-11T19:23:48.287Z,52
2022-12-11T19:26:19.611Z,48
2022-12-11T19:28:51.119Z,48
2022-12-11T19:31:28.200Z,48
2022-12-11T19:33:53.124Z,49
2022-12-11T19:36:23.721Z,43
2022-12-11T19:38:59.387Z,46
2022-12-11T19:41:25.731Z,48
2022-12-11T19:43:56.509Z,45
2022-12-11T19:46:27.843Z,52
2022-12-11T19:49:04.613Z,45
2022-12-11T19:51:31.120Z,48
2022-12-11T19:54:02.451Z,47
2022-12-11T19:56:38.141Z,50
2022-12-11T19:59:09.290Z,54
2022-12-11T20:01:41.084Z,52
2022-12-11T20:04:12.915Z,52
2022-12-11T20:06:45.056Z,52
2022-12-11T20:09:16.426Z,48
2022-12-11T20:11:48.908Z,52
2022-12-11T20:14:23.142Z,47
2022-12-11T20:17:12.733Z,48
2022-12-11T20:19:25.704Z,45
2022-12-11T20:21:56.673Z,52
2022-12-11T20:24:29.659Z,52
2022-12-11T20:27:01.052Z,47
2022-12-11T20:29:33.358Z,48
2022-12-11T20:32:04.731Z,44
2022-12-11T20:34:35.663Z,47
2022-12-11T20:37:06.933Z,45
2022-12-11T20:39:39.065Z,48
2022-12-11T20:42:10.322Z,44
2022-12-11T20:44:45.606Z,51
2022-12-11T20:47:12.797Z,55
2022-12-11T20:49:46.127Z,48
2022-12-11T20:52:17.453Z,47
2022-12-11T20:54:48.920Z,52
2022-12-11T20:57:20.471Z,44
2022-12-11T20:59:52.321Z,53
2022-12-11T21:02:23.406Z,53
2022-12-11T21:04:54.784Z,52
2022-12-11T21:07:26.042Z,49
2022-12-11T21:09:56.907Z,52
2022-12-11T21:12:31.635Z,49
2022-12-11T21:15:00.148Z,54
2022-12-11T21:17:34.336Z,50
2022-12-11T21:20:05.921Z,50
2022-12-11T21:22:41.663Z,51
2022-12-11T21:25:14.344Z,52
2022-12-11T21:27:39.496Z,51
2022-12-11T21:30:10.697Z,52
2022-12-11T21:32:41.070Z,49
2022-12-11T21:35:13.083Z,48
2022-12-11T21:37:45.189Z,52
2022-12-11T21:40:16.480Z,52
2022-12-11T21:42:48.534Z,51
2022-12-11T21:45:59.073Z,52
2022-12-11T21:47:51.325Z,52
2022-12-11T21:50:25.585Z,45
2022-12-11T21:52:55.831Z,54
2022-12-11T21:55:26.877Z,52
2022-12-11T21:57:58.802Z,50
2022-12-11T22:00:33.797Z,56
2022-12-11T22:03:05.037Z,56
2022-12-11T22:05:36.320Z,54
2022-12-11T22:08:07.275Z,48
2022-12-11T22:10:38.906Z,47
2022-12-11T22:13:16.018Z,44
2022-12-11T22:15:42.172Z,48
2022-12-11T22:18:13.650Z,48
2022-12-11T22:20:44.663Z,48
2022-12-11T22:23:16.150Z,50
2022-12-11T22:25:48.269Z,45
2022-12-11T22:28:20.329Z,52
2022-12-11T22:30:51.883Z,48
2022-12-11T22:33:23.267Z,56
2022-12-11T22:35:54.635Z,51
2022-12-11T22:38:25.673Z,48
2022-12-11T22:40:58.679Z,56
2022-12-11T22:43:30.779Z,52
2022-12-11T22:46:03.078Z,49
2022-12-11T22:48:39.801Z,52
2022-12-11T22:51:10.518Z,46
2022-12-11T22:53:36.677Z,49
2022-12-11T22:56:07.584Z,49
2022-12-11T22:58:39.320Z,44
2022-12-11T23:01:11.445Z,41
2022-12-11T23:03:42.613Z,49
2022-12-11T23:06:14.837Z,55
2022-12-11T23:08:45.953Z,45
2022-12-11T23:11:16.888Z,46
2022-12-11T23:13:48.107Z,56
2022-12-11T23:16:19.082Z,45
2022-12-11T23:18:50.880Z,56
2022-12-11T23:21:22.025Z,55
2022-12-11T23:23:58.575Z,50
2022-12-11T23:26:24.253Z,50
2022-12-11T23:28:54.862Z,46
2022-12-11T23:31:25.735Z,46
2022-12-11T23:33:56.422Z,48
2022-12-11T23:36:27.554Z,48
2022-12-11T23:38:58.854Z,48
2022-12-11T23:41:29.920Z,48
2022-12-11T23:44:00.810Z,52
2022-12-11T23:46:32.488Z,56
2022-12-11T23:49:03.755Z,52
2022-12-11T23:51:34.670Z,52
2022-12-11T23:54:06.179Z,48
2022-12-11T23:56:39.819Z,51
2022-12-11T23:59:10.548Z,56
